createdAt,value
2022-09-23T02:44:52.165Z,997.95
2022-09-23T02:45:53.715Z,997.98
2022-09-23T02:46:54.913Z,997.91
2022-09-23T02:47:52.880Z,997.85
2022-09-23T02:48:55.057Z,997.96
2022-09-23T02:49:52.936Z,997.85
2022-09-23T02:51:08.777Z,997.89
2022-09-23T02:52:04.320Z,997.81
2022-09-23T02:52:57.236Z,997.84
2022-09-23T02:54:00.644Z,997.89
2022-09-23T02:54:57.977Z,997.89
2022-09-23T02:55:57.266Z,997.87
2022-09-23T02:57:18.755Z,997.83
2022-09-23T02:58:20.552Z,997.89
2022-09-23T02:59:30.447Z,997.79
2022-09-23T03:00:13.662Z,997.79
2022-09-23T03:01:00.169Z,997.72
2022-09-23T03:02:03.327Z,997.81
2022-09-23T03:03:02.561Z,997.80
2022-09-23T03:04:02.301Z,997.74
2022-09-23T03:05:02.154Z,997.76
2022-09-23T03:06:00.289Z,997.76
2022-09-23T03:07:25.885Z,997.77
2022-09-23T03:07:53.387Z,997.75
2022-09-23T03:08:53.205Z,997.70
2022-09-23T03:09:53.020Z,997.71
2022-09-23T03:10:53.015Z,997.68
2022-09-23T03:11:53.014Z,997.59
2022-09-23T03:12:52.992Z,997.59
2022-09-23T03:13:52.959Z,997.54
2022-09-23T03:14:53.006Z,997.61
2022-09-23T03:15:52.965Z,997.62
2022-09-23T03:16:53.017Z,997.60
2022-09-23T03:17:52.937Z,997.60
2022-09-23T03:18:52.900Z,997.58
2022-09-23T03:19:52.942Z,997.56
2022-09-23T03:20:52.888Z,997.61
2022-09-23T03:21:52.888Z,997.54
2022-09-23T03:22:52.856Z,997.54
2022-09-23T03:23:52.854Z,997.53
2022-09-23T03:24:54.186Z,997.53
2022-09-23T03:25:53.847Z,997.56
2022-09-23T03:26:52.794Z,997.53
2022-09-23T03:27:52.831Z,997.48
2022-09-23T03:28:52.811Z,997.50
2022-09-23T03:29:53.816Z,997.54
2022-09-23T03:30:52.830Z,997.50
2022-09-23T03:31:52.852Z,997.48
2022-09-23T03:32:52.828Z,997.54
2022-09-23T03:33:52.747Z,997.49
2022-09-23T03:34:52.771Z,997.43
2022-09-23T03:35:52.720Z,997.55
2022-09-23T03:36:52.698Z,997.56
2022-09-23T03:37:52.718Z,997.50
2022-09-23T03:38:52.726Z,997.54
2022-09-23T03:39:52.705Z,997.55
2022-09-23T03:40:52.729Z,997.57
2022-09-23T03:41:52.741Z,997.55
2022-09-23T03:42:52.662Z,997.55
2022-09-23T03:43:52.662Z,997.46
2022-09-23T03:44:52.677Z,997.50
2022-09-23T03:45:53.386Z,997.53
2022-09-23T03:46:52.622Z,997.48
2022-09-23T03:47:52.630Z,997.48
2022-09-23T03:48:52.638Z,997.51
2022-09-23T03:49:52.615Z,997.51
2022-09-23T03:50:52.588Z,997.60
2022-09-23T03:51:52.593Z,997.54
2022-09-23T03:52:52.601Z,997.55
2022-09-23T03:53:52.571Z,997.52
2022-09-23T03:54:52.584Z,997.50
2022-09-23T03:55:52.562Z,997.51
2022-09-23T03:56:52.560Z,997.52
2022-09-23T03:57:52.545Z,997.50
2022-09-23T03:58:52.496Z,997.49
2022-09-23T03:59:52.519Z,997.45
2022-09-23T04:00:52.525Z,997.36
2022-09-23T04:01:52.562Z,997.35
2022-09-23T04:02:52.497Z,997.34
2022-09-23T04:03:52.452Z,997.35
2022-09-23T04:04:52.483Z,997.33
2022-09-23T04:05:52.507Z,997.27
2022-09-23T04:06:52.434Z,997.28
2022-09-23T04:07:52.413Z,997.27
2022-09-23T04:08:52.462Z,997.25
2022-09-23T04:09:52.399Z,997.32
2022-09-23T04:10:54.866Z,997.24
2022-09-23T04:11:52.397Z,997.25
2022-09-23T04:12:52.408Z,997.26
2022-09-23T04:13:52.347Z,997.19
2022-09-23T04:14:52.371Z,997.24
2022-09-23T04:15:52.368Z,997.21
2022-09-23T04:16:52.314Z,997.16
2022-09-23T04:17:52.359Z,997.18
2022-09-23T04:18:52.316Z,997.15
2022-09-23T04:19:52.327Z,997.15
2022-09-23T04:20:52.346Z,997.12
2022-09-23T04:21:52.287Z,997.17
2022-09-23T04:22:52.295Z,997.17
2022-09-23T04:23:52.301Z,997.15
2022-09-23T04:24:52.260Z,997.13
2022-09-23T04:25:52.279Z,997.18
2022-09-23T04:26:52.269Z,997.14
2022-09-23T04:27:52.198Z,997.23
2022-09-23T04:28:52.262Z,997.22
2022-09-23T04:29:52.306Z,997.21
2022-09-23T04:30:52.233Z,997.17
2022-09-23T04:31:52.276Z,997.25
2022-09-23T04:32:52.195Z,997.20
2022-09-23T04:33:52.161Z,997.24
2022-09-23T04:34:52.148Z,997.21
2022-09-23T04:35:52.142Z,997.23
2022-09-23T04:36:52.161Z,997.25
2022-09-23T04:37:52.144Z,997.20
2022-09-23T04:38:52.086Z,997.24
2022-09-23T04:39:52.112Z,997.18
2022-09-23T04:40:52.163Z,997.27
2022-09-23T04:41:52.081Z,997.26
2022-09-23T04:42:52.095Z,997.26
2022-09-23T04:43:52.056Z,997.19
2022-09-23T04:44:52.129Z,997.15
2022-09-23T04:45:52.064Z,997.14
2022-09-23T04:46:52.057Z,997.15
2022-09-23T04:47:52.065Z,997.12
2022-09-23T04:49:24.639Z,997.14
2022-09-23T04:49:54.623Z,997.17
2022-09-23T04:50:52.392Z,997.15
2022-09-23T04:51:52.116Z,997.17
2022-09-23T04:52:51.992Z,997.11
2022-09-23T04:53:52.015Z,997.14
2022-09-23T04:54:52.034Z,997.13
2022-09-23T04:55:52.049Z,997.08
2022-09-23T04:56:51.962Z,997.12
2022-09-23T04:57:52.218Z,997.10
2022-09-23T04:58:52.024Z,997.10
2022-09-23T04:59:52.195Z,997.07
2022-09-23T05:00:52.000Z,997.15
2022-09-23T05:01:52.064Z,997.15
2022-09-23T05:02:51.917Z,997.10
2022-09-23T05:04:24.529Z,997.13
2022-09-23T05:04:52.224Z,997.07
2022-09-23T05:06:26.985Z,997.11
2022-09-23T05:06:52.188Z,997.15
2022-09-23T05:07:52.115Z,997.09
2022-09-23T05:08:51.914Z,997.13
2022-09-23T05:09:51.832Z,997.07
2022-09-23T05:10:51.830Z,997.11
2022-09-23T05:11:51.797Z,997.13
2022-09-23T05:12:56.915Z,997.10
2022-09-23T05:13:53.794Z,997.15
2022-09-23T05:14:51.804Z,997.04
2022-09-23T05:15:51.868Z,997.10
2022-09-23T05:17:24.376Z,997.08
2022-09-23T05:17:52.113Z,997.11
2022-09-23T05:18:51.962Z,997.08
2022-09-23T05:19:51.739Z,997.06
2022-09-23T05:20:51.746Z,997.11
2022-09-23T05:21:51.725Z,997.11
2022-09-23T05:22:51.701Z,997.13
2022-09-23T05:23:51.685Z,997.17
2022-09-23T05:24:51.768Z,997.13
2022-09-23T05:26:26.600Z,997.20
2022-09-23T05:26:51.959Z,997.10
2022-09-23T05:28:01.296Z,997.15
2022-09-23T05:29:19.469Z,997.10
2022-09-23T05:29:52.213Z,997.13
2022-09-23T05:31:20.460Z,997.14
2022-09-23T05:31:52.144Z,997.13
2022-09-23T05:32:52.053Z,997.16
2022-09-23T05:33:52.149Z,997.13
2022-09-23T05:34:52.343Z,997.18
2022-09-23T05:36:26.220Z,997.20
2022-09-23T05:36:52.629Z,997.13
2022-09-23T05:37:51.551Z,997.14
2022-09-23T05:38:51.627Z,997.20
2022-09-23T05:39:51.649Z,997.15
2022-09-23T05:41:25.972Z,997.12
2022-09-23T05:41:52.474Z,997.21
2022-09-23T05:42:51.741Z,997.23
2022-09-23T05:43:51.573Z,997.11
2022-09-23T05:44:51.486Z,997.26
2022-09-23T05:46:27.680Z,997.17
2022-09-23T05:47:24.556Z,997.08
2022-09-23T05:47:51.894Z,997.20
2022-09-23T05:48:52.045Z,997.23
2022-09-23T05:50:00.339Z,997.27
2022-09-23T05:50:53.479Z,997.17
2022-09-23T05:51:51.442Z,997.25
2022-09-23T05:52:51.432Z,997.22
2022-09-23T05:53:51.469Z,997.25
2022-09-23T05:54:51.467Z,997.16
2022-09-23T05:55:51.545Z,997.16
2022-09-23T05:56:51.492Z,997.16
2022-09-23T06:01:01.080Z,997.25
2022-09-23T06:02:01.157Z,997.22
2022-09-23T06:03:02.825Z,997.22
2022-09-23T06:04:02.223Z,997.20
2022-09-23T06:05:02.344Z,997.20
2022-09-23T06:06:02.480Z,997.24
2022-09-23T06:07:34.813Z,997.30
2022-09-23T06:08:03.033Z,997.25
2022-09-23T06:09:42.013Z,997.24
2022-09-23T06:10:02.544Z,997.29
2022-09-23T06:11:02.692Z,997.24
2022-09-23T06:12:02.302Z,997.27
2022-09-23T06:13:35.920Z,997.32
2022-09-23T06:14:03.362Z,997.30
2022-09-23T06:15:40.930Z,997.31
2022-09-23T06:16:02.305Z,997.27
2022-09-23T06:17:02.497Z,997.26
2022-09-23T06:18:02.328Z,997.32
2022-09-23T06:19:05.425Z,997.22
2022-09-23T06:20:03.405Z,997.26
2022-09-23T06:21:02.143Z,997.27
2022-09-23T06:22:30.051Z,997.29
2022-09-23T06:23:05.144Z,997.24
2022-09-23T06:24:02.559Z,997.33
2022-09-23T06:25:02.149Z,997.31
2022-09-23T06:26:02.235Z,997.28
2022-09-23T06:27:02.190Z,997.25
2022-09-23T06:28:01.956Z,997.24
2022-09-23T06:29:01.912Z,997.22
2022-09-23T06:30:02.012Z,997.26
2022-09-23T06:31:02.010Z,997.24
2022-09-23T06:32:02.339Z,997.21
2022-09-23T06:33:37.224Z,997.19
2022-09-23T06:34:11.857Z,997.20
2022-09-23T06:35:04.433Z,997.14
2022-09-23T06:36:01.904Z,997.08
2022-09-23T06:37:12.957Z,997.13
2022-09-23T06:38:04.561Z,997.12
2022-09-23T06:39:02.195Z,997.09
2022-09-23T06:40:02.144Z,997.11
2022-09-23T06:41:01.965Z,997.10
2022-09-23T06:42:34.531Z,997.13
2022-09-23T06:43:02.131Z,997.09
2022-09-23T06:44:35.107Z,997.11
2022-09-23T06:45:03.151Z,997.10
2022-09-23T06:46:34.387Z,997.05
2022-09-23T06:47:02.104Z,997.10
2022-09-23T06:48:35.787Z,997.08
2022-09-23T06:49:44.329Z,997.02
2022-09-23T06:50:41.740Z,997.10
2022-09-23T06:51:35.489Z,997.10
2022-09-23T06:52:36.016Z,997.01
2022-09-23T06:53:02.804Z,997.04
2022-09-23T06:54:34.523Z,997.07
2022-09-23T06:55:36.188Z,997.04
2022-09-23T06:56:02.637Z,997.07
2022-09-23T06:57:46.917Z,997.03
2022-09-23T06:58:03.744Z,997.08
2022-09-23T06:59:43.329Z,997.06
2022-09-23T07:00:41.153Z,997.11
2022-09-23T07:01:02.205Z,997.07
2022-09-23T07:02:34.683Z,997.02
2022-09-23T07:03:35.203Z,997.07
2022-09-23T07:04:02.621Z,996.94
2022-09-23T07:05:29.400Z,996.96
2022-09-23T07:06:35.557Z,996.95
2022-09-23T07:07:34.207Z,996.92
2022-09-23T07:08:02.526Z,996.98
2022-09-23T07:09:28.086Z,996.97
2022-09-23T07:10:35.519Z,996.87
2022-09-23T07:11:34.004Z,996.94
2022-09-23T07:12:28.011Z,996.92
2022-09-23T07:13:35.108Z,996.89
2022-09-23T07:14:35.023Z,996.86
2022-09-23T07:15:35.204Z,996.88
2022-09-23T07:16:02.407Z,996.94
2022-09-23T07:17:34.318Z,996.95
2022-09-23T07:18:02.397Z,996.91
2022-09-23T07:19:28.091Z,996.92
2022-09-23T07:20:02.170Z,996.86
2022-09-23T07:21:34.297Z,996.89
2022-09-23T07:22:27.800Z,996.90
2022-09-23T07:23:35.120Z,996.87
2022-09-23T07:24:34.221Z,996.86
2022-09-23T07:25:29.321Z,996.93
2022-09-23T07:26:36.361Z,996.89
2022-09-23T07:27:39.900Z,996.95
2022-09-23T07:28:01.953Z,997.01
2022-09-23T07:29:44.500Z,996.88
2022-09-23T07:30:35.431Z,996.96
2022-09-23T07:31:39.048Z,996.91
2022-09-23T07:32:11.940Z,996.96
2022-09-23T07:33:42.683Z,996.97
2022-09-23T07:34:01.629Z,996.99
2022-09-23T07:35:34.985Z,996.95
2022-09-23T07:36:01.651Z,997.01
2022-09-23T07:37:27.902Z,997.00
2022-09-23T07:38:01.511Z,996.99
2022-09-23T07:39:27.757Z,996.89
2022-09-23T07:40:35.176Z,996.92
2022-09-23T07:41:01.492Z,996.95
2022-09-23T07:42:33.799Z,996.90
2022-09-23T07:43:01.399Z,996.91
2022-09-23T07:44:33.720Z,996.95
2022-09-23T07:45:01.713Z,996.90
2022-09-23T07:46:34.048Z,996.86
2022-09-23T07:47:33.655Z,996.85
2022-09-23T07:48:01.331Z,996.83
2022-09-23T07:49:33.659Z,996.80
2022-09-23T07:50:35.807Z,996.77
2022-09-23T07:51:36.257Z,996.81
2022-09-23T07:52:01.432Z,996.77
2022-09-23T07:53:33.746Z,996.72
2022-09-23T07:54:33.579Z,996.78
2022-09-23T07:55:34.729Z,996.73
2022-09-23T07:56:01.404Z,996.69
2022-09-23T07:57:01.283Z,996.71
2022-09-23T07:58:33.638Z,996.69
2022-09-23T07:59:01.342Z,996.73
2022-09-23T08:00:01.200Z,996.75
2022-09-23T08:01:00.908Z,996.75
2022-09-23T08:02:00.931Z,996.73
2022-09-23T08:03:00.980Z,996.68
2022-09-23T08:04:34.815Z,996.73
2022-09-23T08:05:01.087Z,996.73
2022-09-23T08:06:01.052Z,996.70
2022-09-23T08:07:00.904Z,996.75
2022-09-23T08:08:27.521Z,996.75
2022-09-23T08:09:34.803Z,996.76
2022-09-23T08:10:01.117Z,996.79
2022-09-23T08:12:59.136Z,996.77
2022-09-23T08:14:06.835Z,996.70
2022-09-23T08:15:00.446Z,996.68
2022-09-23T08:16:00.391Z,996.73
2022-09-23T08:17:00.175Z,996.65
2022-09-23T08:18:00.152Z,996.74
2022-09-23T08:19:00.231Z,996.65
2022-09-23T08:20:00.180Z,996.71
2022-09-23T08:21:46.966Z,996.68
2022-09-23T08:22:00.436Z,996.64
2022-09-23T08:23:00.562Z,996.65
2022-09-23T08:24:33.925Z,996.61
2022-09-23T08:25:00.405Z,996.60
2022-09-23T08:26:00.401Z,996.64
2022-09-23T08:27:00.091Z,996.59
2022-09-23T08:28:32.662Z,996.66
2022-09-23T08:29:00.323Z,996.67
2022-09-23T08:30:27.891Z,996.70
2022-09-23T08:31:32.660Z,996.65
2022-09-23T08:32:00.429Z,996.67
2022-09-23T08:33:26.653Z,996.64
2022-09-23T08:34:00.480Z,996.66
2022-09-23T08:35:35.173Z,996.64
2022-09-23T08:36:00.636Z,996.61
2022-09-23T08:37:42.593Z,996.57
2022-09-23T08:38:34.584Z,996.56
2022-09-23T08:39:00.758Z,996.55
2022-09-23T08:40:00.019Z,996.55
2022-09-23T08:40:59.989Z,996.50
2022-09-23T08:42:32.637Z,996.57
2022-09-23T08:43:26.613Z,996.53
2022-09-23T08:44:33.601Z,996.48
2022-09-23T08:45:26.531Z,996.47
2022-09-23T08:46:32.566Z,996.47
2022-09-23T08:47:00.274Z,996.56
2022-09-23T08:48:26.651Z,996.45
2022-09-23T08:49:35.210Z,996.46
2022-09-23T08:50:32.473Z,996.50
2022-09-23T08:51:00.630Z,996.45
2022-09-23T08:52:32.474Z,996.41
2022-09-23T08:53:38.324Z,996.41
2022-09-23T08:54:35.938Z,996.34
2022-09-23T08:55:32.460Z,996.43
2022-09-23T08:56:00.152Z,996.40
2022-09-23T08:56:59.886Z,996.37
2022-09-23T08:58:32.376Z,996.37
2022-09-23T08:59:33.407Z,996.41
2022-09-23T09:00:00.117Z,996.42
2022-09-23T09:00:59.942Z,996.40
2022-09-23T09:01:59.785Z,996.43
2022-09-23T09:02:59.741Z,996.42
2022-09-23T09:03:59.738Z,996.38
2022-09-23T09:05:34.493Z,996.38
2022-09-23T09:05:59.985Z,996.42
2022-09-23T09:07:43.804Z,996.36
2022-09-23T09:08:07.015Z,996.43
2022-09-23T09:09:05.801Z,996.43
2022-09-23T09:10:02.836Z,996.39
2022-09-23T09:15:09.787Z,996.31
2022-09-23T09:16:10.118Z,996.32
2022-09-23T09:17:13.366Z,996.33
2022-09-23T09:18:21.005Z,996.36
2022-09-23T09:19:19.065Z,996.27
2022-09-23T09:20:10.949Z,996.25
2022-09-23T09:21:10.833Z,996.28
2022-09-23T09:22:10.856Z,996.28
2022-09-23T09:23:15.566Z,996.24
2022-09-23T09:24:10.808Z,996.25
2022-09-23T09:25:14.384Z,996.25
2022-09-23T09:26:18.877Z,996.24
2022-09-23T09:27:12.864Z,996.30
2022-09-23T09:28:26.988Z,996.23
2022-09-23T09:29:31.123Z,996.25
2022-09-23T09:30:12.887Z,996.20
2022-09-23T09:31:31.926Z,996.24
2022-09-23T09:32:31.290Z,996.26
2022-09-23T09:33:31.103Z,996.21
2022-09-23T09:34:16.410Z,996.19
2022-09-23T09:35:11.032Z,996.17
2022-09-23T09:36:13.651Z,996.08
2022-09-23T09:37:34.505Z,996.10
2022-09-23T09:39:21.769Z,996.11
2022-09-23T09:40:15.934Z,996.12
2022-09-23T09:40:53.360Z,996.08
2022-09-23T09:41:54.702Z,996.02
2022-09-23T09:42:31.378Z,996.10
2022-09-23T09:43:38.841Z,996.00
2022-09-23T09:45:44.085Z,996.07
2022-09-23T09:45:57.931Z,995.98
2022-09-23T09:47:14.377Z,995.99
2022-09-23T09:48:03.620Z,996.03
2022-09-23T09:49:08.676Z,996.01
2022-09-23T09:50:06.068Z,995.97
2022-09-23T09:51:41.720Z,995.96
2022-09-23T09:52:11.351Z,995.95
2022-09-23T09:55:09.077Z,995.86
2022-09-23T09:56:06.137Z,995.86
2022-09-23T09:58:11.825Z,995.88
2022-09-23T09:58:16.055Z,995.73
2022-09-23T09:59:16.380Z,995.80
2022-09-23T10:02:25.900Z,995.78
2022-09-23T10:03:30.664Z,995.82
2022-09-23T10:04:54.157Z,995.79
2022-09-23T10:05:42.539Z,995.79
2022-09-23T10:06:31.222Z,995.74
2022-09-23T10:07:27.307Z,995.72
2022-09-23T10:10:29.131Z,995.76
2022-09-23T10:10:32.720Z,995.74
2022-09-23T10:13:49.036Z,995.75
2022-09-23T10:14:49.376Z,995.61
2022-09-23T10:15:51.827Z,995.64
2022-09-23T10:16:55.485Z,995.60
2022-09-23T10:17:52.443Z,995.56
2022-09-23T10:19:01.500Z,995.46
2022-09-23T10:19:50.439Z,995.45
2022-09-23T10:20:50.154Z,995.44
2022-09-23T10:21:50.105Z,995.45
2022-09-23T10:22:56.721Z,995.46
2022-09-23T10:23:51.241Z,995.44
2022-09-23T10:24:54.422Z,995.41
2022-09-23T10:25:50.785Z,995.49
2022-09-23T10:29:13.912Z,995.50
2022-09-23T10:30:17.318Z,995.48
2022-09-23T10:33:29.456Z,995.48
2022-09-23T10:37:41.676Z,995.41
2022-09-23T10:38:41.828Z,995.49
2022-09-23T10:39:42.139Z,995.33
2022-09-23T10:40:41.999Z,995.37
2022-09-23T10:41:43.664Z,995.30
2022-09-23T10:42:42.791Z,995.38
2022-09-23T10:43:46.041Z,995.33
2022-09-23T10:44:51.597Z,995.34
2022-09-23T10:45:43.464Z,995.34
2022-09-23T10:46:43.400Z,995.31
2022-09-23T10:47:45.957Z,995.35
2022-09-23T10:48:50.673Z,995.36
2022-09-23T10:49:45.286Z,995.31
2022-09-23T10:51:21.633Z,995.35
2022-09-23T10:52:10.558Z,995.33
2022-09-23T10:52:53.611Z,995.28
2022-09-23T10:55:46.828Z,995.32
2022-09-23T10:56:58.852Z,995.28
2022-09-23T10:57:48.888Z,995.23
2022-09-23T10:58:47.944Z,995.20
2022-09-23T11:02:27.869Z,995.16
2022-09-23T11:03:41.261Z,995.14
2022-09-23T11:05:08.114Z,995.20
2022-09-23T11:06:09.833Z,995.16
2022-09-23T11:07:12.990Z,995.04
2022-09-23T11:07:47.680Z,995.03
2022-09-23T11:08:30.733Z,995.08
2022-09-23T11:16:48.373Z,994.87
2022-09-23T11:17:48.700Z,994.92
2022-09-23T11:18:56.298Z,994.89
2022-09-23T11:19:50.853Z,994.86
2022-09-23T11:25:26.681Z,994.81
2022-09-23T11:28:33.320Z,994.76
2022-09-23T11:29:42.136Z,994.71
2022-09-23T11:32:01.975Z,994.74
2022-09-23T11:34:01.837Z,994.70
2022-09-23T11:35:01.726Z,994.61
2022-09-23T11:36:02.039Z,994.69
2022-09-23T11:37:03.388Z,994.58
2022-09-23T11:39:28.730Z,994.66
2022-09-23T11:45:26.362Z,994.54
2022-09-23T11:46:39.754Z,994.54
2022-09-23T11:50:39.085Z,994.48
2022-09-23T11:51:40.288Z,994.47
2022-09-23T11:52:46.462Z,994.41
2022-09-23T11:53:39.678Z,994.43
2022-09-23T11:56:30.582Z,994.42
2022-09-23T11:57:21.372Z,994.42
2022-09-23T11:59:45.302Z,994.34
2022-09-23T12:00:51.479Z,994.29
2022-09-23T12:03:52.940Z,994.26
2022-09-23T12:08:47.847Z,994.20
2022-09-23T12:10:35.957Z,994.17
2022-09-23T12:10:57.185Z,994.17
2022-09-23T12:12:21.910Z,994.16
2022-09-23T12:12:54.166Z,994.14
2022-09-23T12:15:25.376Z,994.16
2022-09-23T12:16:25.740Z,994.11
2022-09-23T12:17:26.357Z,994.13
2022-09-23T12:20:04.544Z,994.14
2022-09-23T12:21:27.429Z,994.10
2022-09-23T12:22:07.056Z,994.09
2022-09-23T12:23:04.583Z,994.10
2022-09-23T12:24:04.495Z,994.11
2022-09-23T12:25:06.090Z,994.10
2022-09-23T12:28:12.023Z,994.09
2022-09-23T12:32:23.949Z,994.00
2022-09-23T12:35:03.656Z,994.01
2022-09-23T12:36:03.623Z,993.96
2022-09-23T12:37:12.976Z,993.97
2022-09-23T12:39:39.005Z,993.93
2022-09-23T12:40:48.621Z,993.93
2022-09-23T12:41:38.815Z,993.94
2022-09-23T12:42:46.344Z,993.90
2022-09-23T12:48:39.224Z,993.87
2022-09-23T12:49:41.662Z,993.90
2022-09-23T12:50:48.805Z,993.89
2022-09-23T12:54:03.232Z,993.87
2022-09-23T12:55:12.294Z,993.84
2022-09-23T12:58:17.102Z,993.79
2022-09-23T12:59:54.782Z,993.72
2022-09-23T13:00:46.181Z,993.71
2022-09-23T13:01:54.987Z,993.70
2022-09-23T13:02:53.933Z,993.72
2022-09-23T13:04:02.865Z,993.77
2022-09-23T13:04:31.548Z,993.80
2022-09-23T13:07:32.075Z,993.73
2022-09-23T13:08:40.441Z,993.77
2022-09-23T13:11:28.423Z,993.65
2022-09-23T13:14:28.750Z,993.67
2022-09-23T13:15:29.849Z,993.68
2022-09-23T13:16:29.080Z,993.63
2022-09-23T13:18:02.004Z,993.56
2022-09-23T13:22:17.840Z,993.60
2022-09-23T13:23:37.318Z,993.63
2022-09-23T13:26:34.490Z,993.56
2022-09-23T13:30:27.442Z,993.49
2022-09-23T13:33:30.637Z,993.39
2022-09-23T13:34:30.967Z,993.38
2022-09-23T13:37:28.237Z,993.39
2022-09-23T13:39:56.109Z,993.33
2022-09-23T13:40:59.897Z,993.32
2022-09-23T13:42:37.682Z,993.31
2022-09-23T13:42:58.935Z,993.32
2022-09-23T13:46:52.556Z,993.25
2022-09-23T13:48:28.561Z,993.27
2022-09-23T13:49:21.621Z,993.29
2022-09-23T13:49:54.061Z,993.23
2022-09-23T13:51:27.390Z,993.18
2022-09-23T13:54:09.319Z,993.19
2022-09-23T13:57:07.171Z,993.26
2022-09-23T13:58:41.466Z,993.28
2022-09-23T13:59:38.286Z,993.26
2022-09-23T14:03:38.368Z,993.36
2022-09-23T14:06:17.620Z,993.25
2022-09-23T14:07:46.511Z,993.31
2022-09-23T14:08:51.468Z,993.22
2022-09-23T14:09:19.412Z,993.19
2022-09-23T14:12:24.301Z,993.15
2022-09-23T14:13:58.094Z,993.16
2022-09-23T14:14:27.168Z,993.18
2022-09-23T14:17:58.321Z,993.12
2022-09-23T14:19:27.142Z,993.08
2022-09-23T14:19:59.722Z,993.08
2022-09-23T14:21:00.158Z,993.10
2022-09-23T14:22:32.946Z,993.12
2022-09-23T14:22:59.734Z,993.08
2022-09-23T14:23:59.924Z,993.03
2022-09-23T14:25:33.395Z,993.05
2022-09-23T14:25:59.694Z,993.11
2022-09-23T14:26:59.909Z,993.02
2022-09-23T14:28:00.578Z,993.05
2022-09-23T14:29:00.254Z,993.05
2022-09-23T14:29:59.281Z,993.07
2022-09-23T14:30:59.257Z,993.00
2022-09-23T14:31:59.181Z,993.07
2022-09-23T14:32:59.260Z,993.07
2022-09-23T14:33:59.472Z,993.07
2022-09-23T14:34:59.222Z,993.11
2022-09-23T14:35:59.308Z,993.09
2022-09-23T14:36:59.196Z,993.07
2022-09-23T14:37:59.275Z,993.07
2022-09-23T14:38:59.177Z,993.08
2022-09-23T14:39:59.229Z,993.07
2022-09-23T14:40:59.535Z,993.03
2022-09-23T14:41:59.123Z,993.00
2022-09-23T14:42:59.158Z,993.00
2022-09-23T14:43:59.178Z,992.96
2022-09-23T14:44:59.266Z,992.92
2022-09-23T14:45:59.390Z,992.89
2022-09-23T14:46:59.280Z,992.89
2022-09-23T14:47:59.251Z,992.90
2022-09-23T14:48:59.142Z,992.85
2022-09-23T14:49:59.090Z,992.86
2022-09-23T14:50:59.282Z,992.80
2022-09-23T14:51:59.238Z,992.79
2022-09-23T14:52:59.277Z,992.81
2022-09-23T14:54:33.303Z,992.78
2022-09-23T14:55:00.122Z,992.77
2022-09-23T14:58:03.172Z,992.62
2022-09-23T14:59:03.387Z,992.67
2022-09-23T15:00:03.145Z,992.73
2022-09-23T15:01:03.277Z,992.67
2022-09-23T15:02:03.094Z,992.71
2022-09-23T15:03:03.100Z,992.65
2022-09-23T15:04:04.254Z,992.69
2022-09-23T15:05:04.226Z,992.68
2022-09-23T15:06:08.511Z,992.66
2022-09-23T15:07:05.180Z,992.71
2022-09-23T15:08:04.185Z,992.68
2022-09-23T15:09:04.135Z,992.68
2022-09-23T15:10:04.170Z,992.71
2022-09-23T15:11:07.869Z,992.73
2022-09-23T15:12:05.139Z,992.65
2022-09-23T15:13:04.127Z,992.68
2022-09-23T15:14:33.087Z,992.69
2022-09-23T15:15:06.103Z,992.66
2022-09-23T15:16:04.145Z,992.59
2022-09-23T15:17:04.111Z,992.66
2022-09-23T15:18:04.035Z,992.63
2022-09-23T15:19:04.109Z,992.65
2022-09-23T15:20:04.090Z,992.60
2022-09-23T15:21:04.002Z,992.62
2022-09-23T15:22:04.070Z,992.62
2022-09-23T15:23:04.022Z,992.62
2022-09-23T15:24:04.033Z,992.60
2022-09-23T15:25:03.991Z,992.60
2022-09-23T15:26:04.001Z,992.66
2022-09-23T15:27:04.016Z,992.69
2022-09-23T15:28:03.939Z,992.70
2022-09-23T15:29:03.997Z,992.66
2022-09-23T15:30:03.960Z,992.66
2022-09-23T15:31:03.953Z,992.59
2022-09-23T15:32:04.022Z,992.63
2022-09-23T15:33:03.963Z,992.62
2022-09-23T15:34:03.910Z,992.61
2022-09-23T15:35:04.181Z,992.60
2022-09-23T15:36:03.949Z,992.61
2022-09-23T15:37:03.884Z,992.63
2022-09-23T15:38:03.928Z,992.63
2022-09-23T15:39:03.948Z,992.66
2022-09-23T15:40:03.965Z,992.68
2022-09-23T15:41:03.975Z,992.63
2022-09-23T15:42:03.900Z,992.68
2022-09-23T15:43:03.848Z,992.59
2022-09-23T15:44:03.889Z,992.60
2022-09-23T15:45:03.788Z,992.68
2022-09-23T15:46:03.918Z,992.69
2022-09-23T15:47:03.788Z,992.60
2022-09-23T15:48:03.752Z,992.64
2022-09-23T15:49:03.748Z,992.59
2022-09-23T15:50:03.797Z,992.58
2022-09-23T15:51:03.791Z,992.59
2022-09-23T15:52:03.751Z,992.61
2022-09-23T15:53:03.716Z,992.62
2022-09-23T15:54:03.655Z,992.66
2022-09-23T15:55:04.657Z,992.62
2022-09-23T15:56:03.682Z,992.61
2022-09-23T15:57:03.687Z,992.65
2022-09-23T15:58:03.660Z,992.61
2022-09-23T15:59:03.653Z,992.62
2022-09-23T16:00:03.741Z,992.60
2022-09-23T16:01:03.744Z,992.63
2022-09-23T16:02:03.664Z,992.65
2022-09-23T16:03:03.592Z,992.58
2022-09-23T16:04:03.743Z,992.55
2022-09-23T16:05:03.596Z,992.57
2022-09-23T16:06:03.606Z,992.54
2022-09-23T16:07:03.607Z,992.56
2022-09-23T16:08:08.542Z,992.56
2022-09-23T16:09:05.619Z,992.54
2022-09-23T16:10:03.703Z,992.57
2022-09-23T16:11:03.548Z,992.58
2022-09-23T16:12:03.542Z,992.55
2022-09-23T16:13:03.495Z,992.53
2022-09-23T16:14:03.499Z,992.50
2022-09-23T16:15:03.522Z,992.53
2022-09-23T16:16:03.560Z,992.53
2022-09-23T16:17:03.482Z,992.52
2022-09-23T16:18:03.432Z,992.50
2022-09-23T16:19:03.539Z,992.50
2022-09-23T16:20:03.428Z,992.51
2022-09-23T16:21:03.502Z,992.47
2022-09-23T16:22:03.418Z,992.51
2022-09-23T16:23:03.405Z,992.47
2022-09-23T16:24:03.428Z,992.51
2022-09-23T16:25:03.364Z,992.48
2022-09-23T16:26:03.369Z,992.42
2022-09-23T16:27:03.393Z,992.54
2022-09-23T16:28:03.383Z,992.54
2022-09-23T16:29:03.417Z,992.56
2022-09-23T16:30:03.309Z,992.52
2022-09-23T16:31:03.340Z,992.51
2022-09-23T16:32:03.329Z,992.57
2022-09-23T16:33:03.306Z,992.55
2022-09-23T16:34:03.328Z,992.53
2022-09-23T16:35:03.280Z,992.56
2022-09-23T16:36:03.307Z,992.59
2022-09-23T16:37:03.295Z,992.54
2022-09-23T16:38:03.286Z,992.57
2022-09-23T16:39:03.248Z,992.55
2022-09-23T16:40:03.285Z,992.56
2022-09-23T16:41:03.310Z,992.62
2022-09-23T16:42:03.200Z,992.60
2022-09-23T16:43:03.323Z,992.60
2022-09-23T16:44:03.202Z,992.61
2022-09-23T16:45:04.216Z,992.64
2022-09-23T16:46:03.273Z,992.61
2022-09-23T16:47:03.179Z,992.64
2022-09-23T16:48:03.167Z,992.61
2022-09-23T16:49:03.304Z,992.65
2022-09-23T16:50:03.108Z,992.63
2022-09-23T16:51:03.121Z,992.61
2022-09-23T16:52:03.129Z,992.62
2022-09-23T16:53:03.071Z,992.65
2022-09-23T16:54:03.097Z,992.67
2022-09-23T16:55:03.140Z,992.63
2022-09-23T16:56:03.066Z,992.63
2022-09-23T16:57:03.069Z,992.70
2022-09-23T16:58:03.062Z,992.69
2022-09-23T16:59:03.081Z,992.70
2022-09-23T17:00:03.041Z,992.77
2022-09-23T17:01:03.139Z,992.74
2022-09-23T17:02:03.146Z,992.70
2022-09-23T17:03:03.047Z,992.70
2022-09-23T17:04:03.004Z,992.72
2022-09-23T17:05:02.979Z,992.71
2022-09-23T17:06:07.790Z,992.71
2022-09-23T17:07:04.973Z,992.73
2022-09-23T17:08:02.983Z,992.70
2022-09-23T17:09:03.000Z,992.72
2022-09-23T17:10:02.959Z,992.75
2022-09-23T17:11:02.964Z,992.78
2022-09-23T17:12:02.933Z,992.71
2022-09-23T17:13:02.891Z,992.72
2022-09-23T17:14:02.940Z,992.72
2022-09-23T17:15:02.849Z,992.74
2022-09-23T17:16:02.978Z,992.68
2022-09-23T17:17:02.877Z,992.66
2022-09-23T17:18:02.913Z,992.67
2022-09-23T17:19:02.902Z,992.73
2022-09-23T17:20:02.890Z,992.71